Time;durP1;ratioP1;P1;durP2;ratioP2;P2;SDS_P1;SDS_P2;PMS_P1;PMS_P2;Temp;Humidity;BMP_temperature;BMP_pressure;BME280_temperature;BME280_humidity;BME280_pressure;Samples;Min_cycle;Max_cycle;Signal;HPM_P1;HPM_P2
2021/08/25 00:00:11;;;;;;;0.90;0.50;;;;;;;25.70;39.67;101284.41;4974782;28;20055;-63
2021/08/25 00:02:39;;;;;;;0.98;0.40;;;;;;;25.70;39.68;101287.09;4974838;28;20053;-63
2021/08/25 00:05:08;;;;;;;0.80;0.47;;;;;;;25.70;39.72;101289.78;4974964;28;20051;-63
2021/08/25 00:07:35;;;;;;;1.45;0.32;;;;;;;25.66;39.50;101286.63;4975005;28;20122;-64
2021/08/25 00:10:02;;;;;;;1.75;0.35;;;;;;;25.67;39.52;101287.47;4974669;28;20047;-64
2021/08/25 00:12:30;;;;;;;1.50;0.40;;;;;;;25.66;39.52;101288.47;4974612;28;20074;-64
2021/08/25 00:14:57;;;;;;;0.88;0.50;;;;;;;25.63;39.36;101288.81;4974658;28;20438;-66
2021/08/25 00:17:25;;;;;;;1.48;0.70;;;;;;;25.66;39.62;101288.47;4974498;28;20413;-66
2021/08/25 00:19:52;;;;;;;0.65;0.30;;;;;;;25.63;39.71;101292.34;4974524;28;20050;-66
2021/08/25 00:22:18;;;;;;;0.47;0.30;;;;;;;25.59;39.73;101291.84;4974205;28;20058;-66
2021/08/25 00:24:45;;;;;;;0.73;0.40;;;;;;;25.62;39.84;101287.97;4974508;28;20055;-66
2021/08/25 00:27:12;;;;;;;1.05;0.40;;;;;;;25.62;39.99;101292.53;4974469;28;20131;-66
2021/08/25 00:29:38;;;;;;;0.88;0.50;;;;;;;25.62;40.14;101287.16;4974350;28;20258;-66
2021/08/25 00:32:05;;;;;;;1.23;0.50;;;;;;;25.60;40.03;101290.00;4974140;28;20050;-66
2021/08/25 00:34:32;;;;;;;1.08;0.47;;;;;;;25.62;40.23;101287.97;4974342;28;20061;-66
2021/08/25 00:36:59;;;;;;;0.63;0.57;;;;;;;25.59;40.24;101291.84;4974152;28;20652;-67
2021/08/25 00:39:26;;;;;;;1.23;0.50;;;;;;;25.59;40.35;101286.47;4974234;28;20101;-66
2021/08/25 00:41:52;;;;;;;4.00;0.57;;;;;;;25.59;40.47;101281.09;4974497;28;20047;-66
2021/08/25 00:44:19;;;;;;;0.50;0.45;;;;;;;25.60;40.30;101281.94;4974113;28;20453;-66
2021/08/25 00:46:46;;;;;;;2.17;0.60;;;;;;;25.58;40.49;101286.66;4974025;28;20055;-66
2021/08/25 00:49:16;;;;;;;1.58;0.40;;;;;;;25.61;40.50;101290.84;4973933;28;20042;-66
2021/08/25 00:51:47;;;;;;;1.15;0.40;;;;;;;25.66;40.77;101291.16;4974013;28;20081;-66
2021/08/25 00:54:15;;;;;;;1.13;0.50;;;;;;;25.66;40.69;101289.31;4973506;28;20073;-66
2021/08/25 00:56:43;;;;;;;1.10;0.50;;;;;;;25.65;41.00;101284.94;4973769;28;20046;-66
2021/08/25 00:59:12;;;;;;;0.73;0.50;;;;;;;25.64;41.21;101283.28;4973786;28;20464;-66
2021/08/25 01:01:51;;;;;;;1.08;0.50;;;;;;;25.63;40.99;101276.22;4973881;28;20047;-66
2021/08/25 01:04:26;;;;;;;0.73;0.40;;;;;;;25.62;41.18;101284.47;4973628;28;20512;-66
2021/08/25 01:06:55;;;;;;;1.27;0.32;;;;;;;25.63;41.11;101276.22;4973829;28;20058;-66
2021/08/25 01:09:22;;;;;;;1.08;0.60;;;;;;;25.62;41.20;101279.06;4973705;28;20070;-66
2021/08/25 01:11:48;;;;;;;0.77;0.47;;;;;;;25.62;41.20;101271.84;4973916;28;20050;-66
2021/08/25 01:14:16;;;;;;;3.63;0.60;;;;;;;25.63;41.30;101272.69;4973638;28;20047;-66
2021/08/25 01:16:44;;;;;;;4.53;0.77;;;;;;;25.61;41.66;101274.72;4973460;28;20078;-67
2021/08/25 01:19:16;;;;;;;2.20;0.65;;;;;;;25.58;41.85;101273.22;4973473;28;20054;-66
2021/08/25 01:21:45;;;;;;;2.88;0.55;;;;;;;25.53;42.20;101270.19;4973457;28;20058;-67
2021/08/25 01:24:12;;;;;;;1.55;0.40;;;;;;;25.52;42.22;101273.91;4973557;28;20058;-66
2021/08/25 01:26:41;;;;;;;1.63;0.50;;;;;;;25.47;42.24;101269.06;4973708;28;20412;-66
2021/08/25 01:29:24;;;;;;;3.90;0.50;;;;;;;25.41;42.65;101275.94;4973307;28;20047;-66
2021/08/25 01:31:53;;;;;;;0.73;0.40;;;;;;;25.41;42.09;101272.44;4973444;28;20050;-66
2021/08/25 01:34:20;;;;;;;1.05;0.35;;;;;;;25.41;42.63;101267.06;4973321;28;20105;-66
2021/08/25 01:36:51;;;;;;;3.78;0.73;;;;;;;25.39;42.34;101269.88;4973406;28;20050;-66
2021/08/25 01:39:18;;;;;;;2.97;0.60;;;;;;;25.39;42.78;101259.16;4973380;28;20062;-66
2021/08/25 01:41:47;;;;;;;3.53;0.40;;;;;;;25.37;42.68;101265.69;4973508;28;20093;-66
2021/08/25 01:44:14;;;;;;;1.77;0.60;;;;;;;25.37;42.75;101265.69;4973298;28;20043;-66
2021/08/25 01:46:42;;;;;;;2.70;0.40;;;;;;;25.34;42.80;101264.16;4973268;28;20055;-66
2021/08/25 01:49:11;;;;;;;1.27;0.60;;;;;;;25.34;43.01;101255.28;4973245;28;20496;-66
2021/08/25 01:51:39;;;;;;;2.17;0.38;;;;;;;25.34;43.09;101255.28;4973320;28;20118;-66
2021/08/25 01:54:08;;;;;;;0.75;0.30;;;;;;;25.34;42.95;101252.59;4973165;28;20050;-65
2021/08/25 01:56:37;;;;;;;1.15;0.38;;;;;;;25.34;42.81;101249.91;4973292;28;20046;-66
2021/08/25 01:59:04;;;;;;;1.52;0.30;;;;;;;25.37;42.76;101246.91;4973049;28;20105;-65
2021/08/25 02:01:31;;;;;;;1.73;0.55;;;;;;;25.37;42.73;101250.44;4973189;28;20057;-66
2021/08/25 02:03:58;;;;;;;1.00;0.35;;;;;;;25.35;42.56;101240.84;4973257;28;20050;-66
2021/08/25 02:06:25;;;;;;;2.85;0.30;;;;;;;25.35;42.65;101249.72;4975724;28;20047;-66
2021/08/25 02:08:52;;;;;;;6.18;0.38;;;;;;;25.34;42.39;101249.91;4976779;28;20047;-65
2021/08/25 02:11:19;;;;;;;1.73;0.30;;;;;;;25.32;42.43;101246.53;4976851;28;20501;-66
2021/08/25 02:13:45;;;;;;;0.57;0.30;;;;;;;25.29;42.63;101244.22;4976878;28;20452;-66
2021/08/25 02:16:12;;;;;;;1.48;0.30;;;;;;;25.30;42.59;101237.84;4976717;28;20105;-66
2021/08/25 02:18:39;;;;;;;1.85;0.30;;;;;;;25.30;42.38;101237.84;4976676;28;20556;-66
2021/08/25 02:21:06;;;;;;;0.98;0.22;;;;;;;25.29;42.46;101234.28;4976764;28;20043;-66
2021/08/25 02:23:32;;;;;;;1.27;0.30;;;;;;;25.30;42.61;101233.28;4976759;28;20074;-66
2021/08/25 02:25:59;;;;;;;0.77;0.50;;;;;;;25.29;42.38;101230.78;4976594;28;20485;-66
2021/08/25 02:28:26;;;;;;;0.60;0.20;;;;;;;25.26;42.84;101238.16;4976611;28;20413;-66
2021/08/25 02:30:52;;;;;;;2.17;0.60;;;;;;;25.19;43.02;101229.13;4976566;28;20043;-66
2021/08/25 02:33:19;;;;;;;1.15;0.50;;;;;;;25.19;43.02;101233.66;4976492;28;20501;-66
2021/08/25 02:35:46;;;;;;;1.23;0.60;;;;;;;25.16;43.43;101234.00;4976516;28;20429;-66
2021/08/25 02:38:12;;;;;;;2.35;0.60;;;;;;;25.14;43.73;101242.25;4976375;28;20078;-66
2021/08/25 02:40:40;;;;;;;1.73;0.35;;;;;;;25.13;43.84;101240.56;4976424;28;20043;-66
2021/08/25 02:43:06;;;;;;;0.55;0.30;;;;;;;25.14;43.71;101241.38;4976298;28;20470;-65
2021/08/25 02:45:33;;;;;;;1.17;0.47;;;;;;;25.14;43.85;101238.69;4976351;28;20046;-66
2021/08/25 02:48:00;;;;;;;1.02;0.30;;;;;;;25.09;43.90;101239.25;4976182;28;20082;-66
2021/08/25 02:50:27;;;;;;;3.00;0.50;;;;;;;25.11;43.49;101237.19;4976115;28;20485;-66
2021/08/25 02:52:53;;;;;;;0.50;0.28;;;;;;;25.11;43.20;101234.50;4976004;28;20417;-65
2021/08/25 02:55:20;;;;;;;1.42;0.38;;;;;;;25.10;43.18;101231.00;4976209;28;20437;-66
2021/08/25 02:57:47;;;;;;;1.13;0.38;;;;;;;25.10;43.07;101232.84;4976063;28;20513;-66
2021/08/25 03:00:15;;;;;;;1.83;0.40;;;;;;;25.10;42.95;101231.00;4975882;28;20043;-66
2021/08/25 03:02:41;;;;;;;2.22;0.60;;;;;;;25.09;42.84;101229.31;4972825;28;20458;-66
2021/08/25 03:05:09;;;;;;;2.33;0.40;;;;;;;25.10;42.98;101228.31;4972399;28;20054;-66
2021/08/25 03:07:36;;;;;;;0.80;0.30;;;;;;;25.09;42.95;101221.25;4972528;28;20054;-66
2021/08/25 03:10:03;;;;;;;1.35;0.65;;;;;;;25.07;43.22;101222.44;4972326;28;20051;-66
2021/08/25 03:12:30;;;;;;;3.50;0.40;;;;;;;25.06;43.02;101226.13;4972230;28;20551;-65
2021/08/25 03:14:57;;;;;;;0.45;0.40;;;;;;;25.06;42.82;101228.81;4972440;28;20050;-66
2021/08/25 03:17:23;;;;;;;0.70;0.40;;;;;;;25.06;43.06;101226.97;4972040;28;20059;-66
2021/08/25 03:19:50;;;;;;;1.42;0.35;;;;;;;25.06;43.02;101226.13;4972300;28;20051;-67
2021/08/25 03:22:17;;;;;;;1.92;0.38;;;;;;;25.07;43.10;101225.97;4971731;28;20054;-66
2021/08/25 03:24:43;;;;;;;0.52;0.20;;;;;;;25.03;43.28;101226.50;4971867;28;20066;-67
2021/08/25 03:27:10;;;;;;;2.30;0.38;;;;;;;25.01;43.37;101220.44;4971927;28;20050;-66
2021/08/25 03:29:37;;;;;;;2.58;0.30;;;;;;;24.96;43.64;101220.94;4971969;28;20109;-66
2021/08/25 03:32:04;;;;;;;5.13;0.30;;;;;;;24.93;43.47;101221.28;4972115;28;20051;-66
2021/08/25 03:34:33;;;;;;;0.45;0.32;;;;;;;24.90;43.78;101217.09;4972001;28;20093;-66
2021/08/25 03:37:00;;;;;;;1.33;0.45;;;;;;;24.90;43.61;101225.16;4971848;28;20043;-65
2021/08/25 03:39:26;;;;;;;2.10;0.40;;;;;;;24.88;43.59;101220.97;4971707;28;20086;-66
2021/08/25 03:41:53;;;;;;;2.08;0.50;;;;;;;24.88;43.55;101219.09;4971812;28;20050;-66
2021/08/25 03:44:20;;;;;;;0.50;0.30;;;;;;;24.86;43.74;101215.78;4972236;28;20050;-66
2021/08/25 03:46:46;;;;;;;0.50;0.30;;;;;;;24.87;43.88;101222.78;4971889;28;20080;-66
2021/08/25 03:49:13;;;;;;;0.70;0.30;;;;;;;24.85;44.08;101219.47;4971483;28;20055;-66
2021/08/25 03:51:40;;;;;;;0.80;0.32;;;;;;;24.84;44.04;101217.78;4971554;28;20489;-66
2021/08/25 03:54:07;;;;;;;0.73;0.30;;;;;;;24.82;44.06;101218.94;4971453;28;20101;-66
2021/08/25 03:56:33;;;;;;;0.70;0.40;;;;;;;24.78;44.23;101213.09;4971851;28;20051;-66
2021/08/25 03:59:00;;;;;;;0.98;0.63;;;;;;;24.76;44.48;101209.75;4971425;28;20086;-66
2021/08/25 04:01:27;;;;;;;2.25;0.40;;;;;;;24.74;44.36;101209.06;4971649;28;20059;-66
2021/08/25 04:03:54;;;;;;;0.70;0.40;;;;;;;24.73;44.61;101208.22;4971494;28;20048;-66
2021/08/25 04:06:21;;;;;;;2.38;0.40;;;;;;;24.71;44.77;101209.38;4971462;28;20058;-66
2021/08/25 04:08:47;;;;;;;0.88;0.50;;;;;;;24.71;44.69;101204.03;4971413;28;20050;-66
2021/08/25 04:11:20;;;;;;;1.80;0.52;;;;;;;24.70;44.76;101213.09;4971227;28;20470;-66
2021/08/25 04:13:47;;;;;;;0.80;0.35;;;;;;;24.68;44.70;101207.88;4971459;28;20627;-67
2021/08/25 04:16:13;;;;;;;1.92;0.52;;;;;;;24.69;44.79;101206.06;4971020;28;20053;-66
2021/08/25 04:18:40;;;;;;;1.10;0.40;;;;;;;24.68;44.93;101201.69;4970943;28;20062;-66
2021/08/25 04:21:07;;;;;;;2.10;0.57;;;;;;;24.67;44.76;101210.75;4971190;28;20117;-66
2021/08/25 04:23:34;;;;;;;3.42;0.55;;;;;;;24.68;44.70;101207.06;4970899;28;20047;-66
2021/08/25 04:26:00;;;;;;;4.22;0.65;;;;;;;24.65;44.84;101204.72;4971150;28;20050;-66
2021/08/25 04:28:27;;;;;;;0.60;0.30;;;;;;;24.62;44.55;101204.00;4970263;28;20097;-66
2021/08/25 04:30:54;;;;;;;0.93;0.50;;;;;;;24.60;44.41;101200.66;4970848;28;20051;-65
2021/08/25 04:33:21;;;;;;;1.80;0.40;;;;;;;24.59;44.23;101201.69;4970854;28;20050;-66
2021/08/25 04:35:48;;;;;;;1.30;0.35;;;;;;;24.58;43.86;101201.81;4970837;28;20054;-66
2021/08/25 04:38:14;;;;;;;1.17;0.40;;;;;;;24.55;43.75;101208.34;4970926;28;20070;-66
2021/08/25 04:40:41;;;;;;;0.82;0.47;;;;;;;24.53;43.60;101213.06;4970771;28;20047;-66
2021/08/25 04:43:08;;;;;;;0.50;0.30;;;;;;;24.51;43.49;101209.72;4970520;28;20047;-67
2021/08/25 04:45:37;;;;;;;1.08;0.40;;;;;;;24.47;43.72;101211.06;4970717;28;20520;-66
2021/08/25 04:48:04;;;;;;;1.25;0.50;;;;;;;24.43;43.27;101207.88;4970333;28;20050;-66
2021/08/25 04:50:32;;;;;;;1.05;0.55;;;;;;;24.41;43.43;101206.34;4970508;28;21031;-66
2021/08/25 04:52:59;;;;;;;1.13;0.55;;;;;;;24.40;43.29;101210.88;4970425;28;20050;-66
2021/08/25 04:55:25;;;;;;;1.52;0.30;;;;;;;24.37;43.46;101216.56;4970333;28;20053;-66
2021/08/25 04:57:52;;;;;;;0.85;0.50;;;;;;;24.37;43.42;101215.75;4970558;28;20490;-65
2021/08/25 05:00:19;;;;;;;1.85;0.40;;;;;;;24.36;43.54;101214.06;4970352;28;20051;-66
2021/08/25 05:02:46;;;;;;;0.65;0.30;;;;;;;24.34;43.58;101222.28;4970316;28;20413;-66
2021/08/25 05:05:13;;;;;;;2.28;0.50;;;;;;;24.38;43.78;101222.78;4970569;28;20516;-66
2021/08/25 05:07:39;;;;;;;0.95;0.45;;;;;;;24.43;43.50;101225.81;4970360;28;20501;-66
2021/08/25 05:10:06;;;;;;;1.70;0.60;;;;;;;24.48;43.38;101233.34;4970174;28;20811;-66
2021/08/25 05:12:34;;;;;;;4.35;0.57;;;;;;;24.46;43.48;101230.84;4970375;28;20058;-65
2021/08/25 05:15:00;;;;;;;1.65;0.55;;;;;;;24.42;43.58;101237.56;4970116;28;20089;-66
2021/08/25 05:17:27;;;;;;;1.77;0.40;;;;;;;24.44;43.80;101236.38;4970517;28;20105;-65
2021/08/25 05:19:54;;;;;;;1.67;0.40;;;;;;;24.46;43.52;101247.75;4970056;28;20054;-65
2021/08/25 05:22:20;;;;;;;0.90;0.50;;;;;;;24.53;43.64;101250.63;4970151;28;20050;-66
2021/08/25 05:24:47;;;;;;;0.90;0.55;;;;;;;24.57;43.56;101254.66;4969900;28;20051;-66
2021/08/25 05:27:13;;;;;;;1.98;0.40;;;;;;;24.59;43.64;101252.66;4969977;28;20457;-66
2021/08/25 05:29:40;;;;;;;4.65;0.60;;;;;;;24.60;43.73;101259.69;4969870;28;20050;-66
2021/08/25 05:32:07;;;;;;;0.95;0.30;;;;;;;24.67;43.78;101261.72;4969947;28;20525;-66
2021/08/25 05:34:34;;;;;;;1.85;0.90;;;;;;;24.68;43.76;101260.72;4970284;28;20338;-66
2021/08/25 05:37:00;;;;;;;2.28;0.60;;;;;;;24.67;43.92;101264.41;4969841;28;20053;-66
2021/08/25 05:39:27;;;;;;;4.40;1.13;;;;;;;24.69;43.69;101267.78;4969636;28;20308;-66
2021/08/25 05:41:53;;;;;;;1.48;0.52;;;;;;;24.67;43.98;101267.97;4969951;28;20051;-66
2021/08/25 05:44:20;;;;;;;1.20;0.50;;;;;;;24.66;43.96;101270.78;4969922;28;20058;-67
2021/08/25 05:46:47;;;;;;;2.55;0.77;;;;;;;24.71;43.98;101273.81;4970264;28;20609;-67
2021/08/25 05:49:13;;;;;;;2.72;1.20;;;;;;;24.69;44.18;101278.50;4969803;28;20097;-67
2021/08/25 05:51:40;;;;;;;3.25;1.30;;;;;;;24.66;44.47;101279.69;4969905;28;20051;-66
2021/08/25 05:54:09;;;;;;;4.13;0.70;;;;;;;24.65;44.37;101285.22;4969528;28;20043;-67
2021/08/25 05:56:36;;;;;;;2.22;0.75;;;;;;;24.64;44.51;101286.19;4969516;28;20051;-66
2021/08/25 05:59:02;;;;;;;3.22;0.75;;;;;;;24.63;44.75;101298.75;4969575;28;20055;-67
2021/08/25 06:01:29;;;;;;;3.65;0.80;;;;;;;24.58;44.65;101301.09;4969796;28;20486;-66
2021/08/25 06:03:56;;;;;;;6.45;0.60;;;;;;;24.55;44.87;101306.81;4969948;28;20129;-67
2021/08/25 06:06:30;;;;;;;3.45;0.70;;;;;;;24.52;45.04;101307.97;4969520;28;20519;-67
2021/08/25 06:08:57;;;;;;;2.80;0.90;;;;;;;24.49;45.22;101310.97;4969653;28;20055;-66
2021/08/25 06:11:24;;;;;;;7.25;1.30;;;;;;;24.49;45.13;101310.16;4969468;28;20058;-67
2021/08/25 06:13:51;;;;;;;3.13;0.80;;;;;;;24.50;45.38;101304.63;4969695;28;20058;-67
2021/08/25 06:16:17;;;;;;;4.53;1.02;;;;;;;24.49;45.34;101305.63;4969682;28;20311;-67
2021/08/25 06:18:44;;;;;;;4.82;1.17;;;;;;;24.78;44.56;101312.41;4969486;28;20057;-66
2021/08/25 06:21:15;;;;;;;4.28;0.88;;;;;;;25.00;44.26;101302.00;4969306;28;20070;-67
2021/08/25 06:23:43;;;;;;;3.22;0.88;;;;;;;25.16;44.06;101306.53;4969077;28;20062;-67
2021/08/25 06:26:11;;;;;;;1.17;0.57;;;;;;;25.24;43.86;101304.66;4969567;28;20043;-67
2021/08/25 06:28:38;;;;;;;5.63;0.82;;;;;;;25.33;43.64;101305.50;4969705;28;20046;-66
2021/08/25 06:31:04;;;;;;;2.38;1.00;;;;;;;25.32;43.47;101305.66;4969220;28;20063;-67
2021/08/25 06:33:31;;;;;;;2.80;0.82;;;;;;;25.40;43.49;101300.31;4969541;28;20106;-67
2021/08/25 06:35:58;;;;;;;1.00;0.70;;;;;;;25.47;43.45;101303.13;4969296;28;20051;-67
2021/08/25 06:38:24;;;;;;;2.30;0.50;;;;;;;25.58;43.21;101306.31;4969530;28;20417;-67
2021/08/25 06:40:51;;;;;;;1.95;0.40;;;;;;;25.69;42.82;101307.78;4969530;28;20101;-67
2021/08/25 06:43:18;;;;;;;4.70;0.82;;;;;;;25.79;42.71;101306.72;4969325;28;20047;-67
2021/08/25 06:45:45;;;;;;;1.58;0.40;;;;;;;25.81;42.49;101313.59;4969185;28;20047;-67
2021/08/25 06:48:11;;;;;;;1.98;0.55;;;;;;;25.89;42.47;101313.59;4969221;28;20057;-67
2021/08/25 06:50:38;;;;;;;2.10;0.70;;;;;;;25.95;42.21;101301.28;4969212;28;20486;-67
2021/08/25 06:53:05;;;;;;;2.20;0.60;;;;;;;26.08;42.05;101301.59;4972355;28;20493;-67
2021/08/25 06:55:31;;;;;;;1.77;0.30;;;;;;;26.12;41.88;101301.25;4972652;28;20058;-67
2021/08/25 06:57:58;;;;;;;1.48;0.55;;;;;;;26.16;41.78;101306.09;4972580;28;20101;-67
2021/08/25 07:00:25;;;;;;;1.77;0.50;;;;;;;26.01;42.00;101299.75;4972777;28;20051;-67
2021/08/25 07:02:54;;;;;;;2.22;0.40;;;;;;;26.08;41.96;101300.78;4972813;28;20047;-66
2021/08/25 07:05:22;;;;;;;1.77;0.50;;;;;;;26.35;41.43;101295.91;4972481;28;20461;-67
2021/08/25 07:07:49;;;;;;;1.60;0.43;;;;;;;26.53;41.00;101309.91;4972747;28;20047;-67
2021/08/25 07:10:16;;;;;;;2.05;0.50;;;;;;;26.73;40.80;101306.78;4972420;28;20051;-67
2021/08/25 07:12:43;;;;;;;3.13;0.80;;;;;;;26.94;40.39;101292.63;4972291;28;20061;-67
2021/08/25 07:15:16;;;;;;;3.50;0.50;;;;;;;26.96;40.50;101295.16;4972067;28;20046;-66
2021/08/25 07:17:43;;;;;;;1.83;0.50;;;;;;;27.16;40.47;101296.31;4972167;28;20051;-67
2021/08/25 07:20:12;;;;;;;1.70;0.70;;;;;;;27.24;40.08;101290.00;4972065;28;20054;-67
2021/08/25 07:22:39;;;;;;;1.58;0.50;;;;;;;27.48;39.79;101293.50;4972398;28;20453;-67
2021/08/25 07:25:07;;;;;;;1.40;0.50;;;;;;;27.68;39.18;101297.28;4971883;28;20058;-67
2021/08/25 07:27:35;;;;;;;3.50;0.70;;;;;;;27.82;39.10;101297.44;4972160;28;20057;-67
2021/08/25 07:30:02;;;;;;;6.43;0.52;;;;;;;27.53;39.81;101305.38;4972421;28;20496;-67
2021/08/25 07:32:29;;;;;;;1.90;0.43;;;;;;;27.33;39.99;101304.22;4972307;28;20054;-67
2021/08/25 07:34:55;;;;;;;2.63;0.77;;;;;;;27.21;40.42;101310.06;4971932;28;20097;-67
2021/08/25 07:37:22;;;;;;;1.92;0.57;;;;;;;27.09;40.52;101302.59;4972016;28;20109;-67
2021/08/25 07:39:49;;;;;;;1.75;0.60;;;;;;;27.27;40.29;101303.09;4972003;28;20050;-67
2021/08/25 07:42:16;;;;;;;1.92;0.55;;;;;;;27.28;40.56;101299.38;4971793;28;20051;-67
2021/08/25 07:44:43;;;;;;;8.15;1.40;;;;;;;27.44;40.41;101305.63;4971796;28;20055;-67
2021/08/25 07:47:09;;;;;;;3.35;1.08;;;;;;;27.32;40.67;101313.31;4971656;28;20066;-67
2021/08/25 07:49:36;;;;;;;3.17;0.65;;;;;;;27.29;40.69;101308.31;4971620;28;20074;-67
2021/08/25 07:52:03;;;;;;;2.17;0.50;;;;;;;27.30;40.47;101305.44;4971583;28;20456;-67
2021/08/25 07:54:31;;;;;;;3.33;0.40;;;;;;;27.32;40.14;101310.63;4971678;28;20379;-66
2021/08/25 07:56:57;;;;;;;2.17;0.55;;;;;;;27.49;39.91;101304.06;4971640;28;20043;-67
2021/08/25 07:59:24;;;;;;;1.58;0.40;;;;;;;27.38;40.26;101313.41;4971504;28;20050;-67
2021/08/25 08:01:51;;;;;;;1.55;0.50;;;;;;;27.36;39.97;101312.78;4971399;28;20073;-67
2021/08/25 08:04:18;;;;;;;12.38;1.83;;;;;;;27.52;39.42;101317.16;4970315;28;20050;-67
2021/08/25 08:06:45;;;;;;;5.25;0.70;;;;;;;27.84;39.01;101314.28;4971587;28;20544;-66
2021/08/25 08:09:11;;;;;;;2.90;0.47;;;;;;;27.87;38.95;101308.50;4971175;28;20058;-67
2021/08/25 08:11:38;;;;;;;1.50;0.50;;;;;;;27.65;39.20;101300.34;4971611;28;20050;-67
2021/08/25 08:14:06;;;;;;;1.60;0.60;;;;;;;27.47;39.29;101307.97;4971489;28;20043;-67
2021/08/25 08:16:35;;;;;;;3.50;0.50;;;;;;;27.35;39.39;101303.00;4970891;28;20051;-67
2021/08/25 08:19:29;;;;;;;1.00;0.35;;;;;;;27.41;39.13;101306.03;4971162;28;20509;-67
2021/08/25 08:21:50;;;;;;;1.17;0.40;;;;;;;27.49;38.87;101303.22;4971111;28;20043;-67
2021/08/25 08:24:17;;;;;;;0.77;0.40;;;;;;;27.40;38.75;101310.59;4971008;28;20532;-67
2021/08/25 08:26:45;;;;;;;1.10;0.30;;;;;;;27.42;38.40;101305.84;4970838;28;20412;-66
2021/08/25 08:29:11;;;;;;;0.95;0.50;;;;;;;27.41;38.39;101300.63;4970865;28;20046;-67
2021/08/25 08:31:38;;;;;;;3.90;1.10;;;;;;;27.34;38.42;101298.63;4970936;28;20055;-66
2021/08/25 08:34:05;;;;;;;1.90;0.88;;;;;;;27.69;37.93;101295.41;4970851;28;20571;-66
2021/08/25 08:36:32;;;;;;;2.45;0.80;;;;;;;28.38;36.58;101291.50;4970782;28;20129;-66
2021/08/25 08:38:58;;;;;;;2.08;0.70;;;;;;;28.78;35.75;101286.50;4970549;28;20046;-67
2021/08/25 08:41:25;;;;;;;3.28;0.80;;;;;;;28.99;35.29;101290.22;4970771;28;20046;-64
2021/08/25 08:43:53;;;;;;;2.20;0.60;;;;;;;29.20;35.10;101280.38;4970876;28;20050;-64
2021/08/25 08:46:21;;;;;;;0.50;0.40;;;;;;;29.43;34.67;101280.97;4970737;28;20059;-65
2021/08/25 08:48:50;;;;;;;2.67;0.50;;;;;;;29.61;34.23;101280.44;4970914;28;20490;-64
2021/08/25 08:51:20;;;;;;;1.10;0.50;;;;;;;29.73;33.84;101283.41;4970334;28;20047;-64
2021/08/25 08:53:48;;;;;;;1.63;0.40;;;;;;;29.90;33.38;101285.78;4970674;28;20047;-64
2021/08/25 08:56:15;;;;;;;3.15;0.50;;;;;;;30.09;33.09;101286.91;4970366;28;20051;-64
2021/08/25 08:58:42;;;;;;;1.73;0.52;;;;;;;30.25;33.00;101285.69;4970807;28;20058;-64
2021/08/25 09:01:09;;;;;;;1.45;0.40;;;;;;;30.28;32.88;101286.13;4970625;28;20055;-64
2021/08/25 09:03:41;;;;;;;5.22;1.15;;;;;;;30.42;32.52;101287.00;4970139;28;20043;-64
2021/08/25 09:06:09;;;;;;;1.40;0.60;;;;;;;30.52;32.15;101291.19;4970153;28;20054;-64
2021/08/25 09:08:39;;;;;;;1.55;0.60;;;;;;;30.61;32.26;101284.53;4970097;28;20515;-64
2021/08/25 09:11:16;;;;;;;2.90;1.27;;;;;;;30.81;32.16;101287.25;4970187;28;20047;-63
2021/08/25 09:13:49;;;;;;;1.58;0.60;;;;;;;30.78;32.01;101279.56;4970021;28;20059;-64
2021/08/25 09:16:29;;;;;;;2.25;0.77;;;;;;;30.70;31.86;101287.88;4970227;28;20042;-64
2021/08/25 09:19:01;;;;;;;2.15;0.75;;;;;;;30.89;32.11;101275.34;4970092;28;20078;-64
2021/08/25 09:21:35;;;;;;;3.63;1.10;;;;;;;31.16;31.55;101273.50;4970413;28;20077;-64
2021/08/25 09:24:02;;;;;;;2.40;0.90;;;;;;;31.34;30.99;101264.69;4969463;28;20058;-64
2021/08/25 09:26:28;;;;;;;1.63;0.63;;;;;;;31.43;31.32;101265.28;4970115;28;20414;-64
2021/08/25 09:29:13;;;;;;;1.17;0.60;;;;;;;31.59;30.50;101262.09;4970212;28;20070;-64
2021/08/25 09:31:45;;;;;;;2.08;1.02;;;;;;;31.71;30.56;101256.88;4970056;28;20050;-64
2021/08/25 09:34:34;;;;;;;4.63;0.70;;;;;;;31.92;29.84;101252.16;4970134;28;20051;-64
2021/08/25 09:37:10;;;;;;;2.78;0.60;;;;;;;32.04;29.96;101249.63;4970186;28;20046;-64
2021/08/25 09:39:54;;;;;;;2.72;0.90;;;;;;;31.99;29.76;101252.97;4969646;28;20066;-64
2021/08/25 09:42:43;;;;;;;4.00;0.88;;;;;;;32.27;29.88;101253.69;4969760;28;20050;-64
2021/08/25 09:45:13;;;;;;;1.45;0.60;;;;;;;32.33;29.52;101250.06;4969608;28;20050;-64
2021/08/25 09:47:56;;;;;;;5.10;0.80;;;;;;;32.47;29.31;101248.94;4970040;28;20097;-64
2021/08/25 09:50:25;;;;;;;1.80;0.90;;;;;;;32.63;28.78;101252.97;4969970;28;20047;-64
2021/08/25 09:52:53;;;;;;;1.00;0.50;;;;;;;32.64;28.29;101241.03;4969909;28;20090;-64
2021/08/25 09:55:30;;;;;;;1.15;0.50;;;;;;;32.71;28.64;101238.28;4969649;28;20086;-64
2021/08/25 09:58:00;;;;;;;2.40;0.82;;;;;;;32.89;28.06;101229.38;4969758;28;20113;-64
2021/08/25 10:00:27;;;;;;;1.80;0.65;;;;;;;33.03;27.66;101235.50;4969622;28;20410;-63
2021/08/25 10:02:55;;;;;;;1.75;0.95;;;;;;;33.17;27.90;101234.28;4969772;28;20054;-64
2021/08/25 10:05:28;;;;;;;2.75;0.63;;;;;;;33.36;26.98;101228.88;4969749;28;20493;-64
2021/08/25 10:07:56;;;;;;;1.60;0.50;;;;;;;33.51;26.73;101225.78;4969646;28;20053;-64
2021/08/25 10:10:23;;;;;;;1.38;0.55;;;;;;;33.60;26.51;101226.28;4969547;28;20050;-64
2021/08/25 10:12:51;;;;;;;4.22;0.75;;;;;;;33.73;26.56;101219.84;4969701;28;20054;-64
2021/08/25 10:15:30;;;;;;;1.88;0.50;;;;;;;33.73;26.28;101226.09;4969417;28;20467;-64
2021/08/25 10:17:57;;;;;;;2.22;0.57;;;;;;;33.85;26.15;101216.13;4969710;28;20086;-64
2021/08/25 10:20:33;;;;;;;3.03;0.60;;;;;;;33.90;26.27;101207.25;4969386;28;20059;-64
2021/08/25 10:23:02;;;;;;;1.98;0.60;;;;;;;34.09;26.11;101201.75;4969873;28;20049;-64
2021/08/25 10:25:29;;;;;;;0.98;0.68;;;;;;;34.20;25.91;101191.97;4969530;28;20441;-64
2021/08/25 10:28:07;;;;;;;1.85;0.70;;;;;;;34.01;25.66;101198.28;4972681;28;20047;-64
2021/08/25 10:30:46;;;;;;;1.70;0.70;;;;;;;34.38;25.78;101200.06;4973417;28;20517;-64
2021/08/25 10:33:14;;;;;;;2.55;0.70;;;;;;;34.32;25.85;101198.22;4973168;28;20415;-64
2021/08/25 10:35:43;;;;;;;1.67;0.60;;;;;;;34.53;25.01;101202.31;4973373;28;20146;-64
2021/08/25 10:38:40;;;;;;;3.38;0.57;;;;;;;34.76;25.25;101196.03;4973101;28;20051;-64
2021/08/25 10:41:20;;;;;;;0.80;0.68;;;;;;;34.84;24.71;101189.38;4972780;28;20055;-64
2021/08/25 10:43:47;;;;;;;3.90;0.50;;;;;;;34.91;24.54;101184.66;4973038;28;20054;-64
2021/08/25 10:46:17;;;;;;;1.65;0.47;;;;;;;34.98;24.30;101184.53;4972702;28;20650;-64
2021/08/25 10:48:53;;;;;;;3.97;0.88;;;;;;;35.08;24.33;101173.00;4972869;28;20047;-64
2021/08/25 10:51:34;;;;;;;2.20;0.60;;;;;;;35.29;23.94;101171.53;4972592;28;20424;-64
2021/08/25 10:54:07;;;;;;;1.75;0.55;;;;;;;35.31;23.75;101167.50;4972770;28;20437;-64
2021/08/25 10:56:42;;;;;;;1.58;0.90;;;;;;;35.17;24.23;101166.09;4972536;28;20528;-64
2021/08/25 10:59:11;;;;;;;0.98;0.60;;;;;;;35.27;23.90;101168.22;4972340;28;20505;-64
2021/08/25 11:01:42;;;;;;;1.38;0.70;;;;;;;34.83;24.44;101166.75;4972370;28;20054;-64
2021/08/25 11:04:24;;;;;;;4.13;1.25;;;;;;;35.02;24.04;101163.06;4972216;28;20121;-64
2021/08/25 11:06:58;;;;;;;2.22;0.50;;;;;;;35.16;23.77;101156.28;4972656;28;20051;-64
2021/08/25 11:09:26;;;;;;;3.03;0.70;;;;;;;35.04;24.03;101150.03;4973108;28;20054;-64
2021/08/25 11:12:08;;;;;;;0.63;0.50;;;;;;;35.24;23.52;101155.88;4972866;28;20047;-64
2021/08/25 11:14:34;;;;;;;0.70;0.45;;;;;;;34.91;24.28;101151.13;4972496;28;20047;-65
2021/08/25 11:17:08;;;;;;;0.85;0.65;;;;;;;35.12;23.54;101145.03;4972633;28;20046;-65
2021/08/25 11:19:42;;;;;;;1.70;0.60;;;;;;;35.26;23.51;101145.56;4972550;28;20058;-64
2021/08/25 11:22:33;;;;;;;1.73;0.60;;;;;;;35.40;22.96;101143.41;4972385;28;20444;-64
2021/08/25 11:25:07;;;;;;;1.33;0.40;;;;;;;35.58;23.13;101139.66;4972136;28;20051;-65
2021/08/25 11:27:36;;;;;;;3.50;0.70;;;;;;;35.80;23.00;101141.66;4972308;28;20056;-64
2021/08/25 11:30:08;;;;;;;3.33;0.90;;;;;;;35.64;23.22;101133.22;4972186;28;20398;-64